createdAt,value
2019-02-25T06:19:37.033Z,27.57
2019-02-25T06:31:36.921Z,27.57
2019-02-25T06:37:36.921Z,27.67
2019-02-25T06:38:36.812Z,27.47
2019-02-25T06:39:36.847Z,27.57
2019-02-25T06:40:36.805Z,27.27
2019-02-25T06:42:36.766Z,27.47
2019-02-25T06:44:36.751Z,27.28
2019-02-25T06:47:36.711Z,27.47
2019-02-25T06:48:36.702Z,27.27
2019-02-25T06:49:36.748Z,27.27
2019-02-25T06:50:36.684Z,27.57
2019-02-25T06:52:36.709Z,27.27
2019-02-25T06:53:36.645Z,27.27
2019-02-25T06:54:36.639Z,28.17
2019-02-25T06:55:36.629Z,28.17
2019-02-25T06:56:36.618Z,28.17
2019-02-25T06:57:36.620Z,28.67
2019-02-25T06:58:36.587Z,28.27
2019-02-25T06:59:36.572Z,27.87
2019-02-25T07:00:36.582Z,28.07
2019-02-25T07:01:36.545Z,27.97
2019-02-25T07:02:36.545Z,28.07
2019-02-25T07:03:36.535Z,28.07
2019-02-25T07:04:36.565Z,27.97
2019-02-25T07:05:36.537Z,27.97
2019-02-25T07:06:36.506Z,27.97
2019-02-25T07:07:36.685Z,27.97
2019-02-25T07:08:36.475Z,28.07
2019-02-25T07:09:36.454Z,28.17
2019-02-25T07:10:36.445Z,28.07
2019-02-25T07:11:36.440Z,28.06
2019-02-25T07:12:36.431Z,28.16
2019-02-25T07:13:36.417Z,27.97
2019-02-25T07:14:36.404Z,28.16
2019-02-25T07:15:36.416Z,28.46
2019-02-25T07:16:36.389Z,28.25
2019-02-25T07:17:36.392Z,28.16
2019-02-25T07:18:36.363Z,28.06
2019-02-25T07:19:36.349Z,27.96
2019-02-25T07:20:36.348Z,27.96
2019-02-25T07:21:36.330Z,28.06
2019-02-25T07:22:36.692Z,27.96
2019-02-25T07:23:37.706Z,28.16
2019-02-25T07:24:36.319Z,28.16
2019-02-25T07:25:36.281Z,28.25
2019-02-25T07:26:36.270Z,28.16
2019-02-25T07:27:36.265Z,28.16
2019-02-25T07:28:36.719Z,28.36
2019-02-25T07:29:36.267Z,28.36
2019-02-25T07:30:36.218Z,28.16
2019-02-25T07:31:36.253Z,28.16
2019-02-25T07:32:36.216Z,27.96
2019-02-25T07:33:36.190Z,28.25
2019-02-25T07:34:36.189Z,28.06
2019-02-25T07:35:36.175Z,28.14
2019-02-25T07:36:36.186Z,28.06
2019-02-25T07:37:36.145Z,28.44
2019-02-25T07:38:39.467Z,27.66
2019-02-25T07:39:36.124Z,28.14
2019-02-25T07:40:36.109Z,28.24
2019-02-25T07:41:38.168Z,28.04
2019-02-25T07:42:36.091Z,28.24
2019-02-25T07:43:36.077Z,28.44
2019-02-25T07:44:36.066Z,28.55
2019-02-25T07:45:36.066Z,28.35
2019-02-25T07:46:36.055Z,28.64
2019-02-25T07:47:36.026Z,28.55
2019-02-25T07:48:36.019Z,28.55
2019-02-25T07:49:36.002Z,28.55
2019-02-25T07:50:36.019Z,29.15
2019-02-25T07:51:35.982Z,28.44
2019-02-25T07:52:35.984Z,29.15
2019-02-25T07:53:35.961Z,28.94
2019-02-25T07:54:35.966Z,28.44
2019-02-25T07:55:35.957Z,28.64
2019-02-25T07:56:35.937Z,28.64
2019-02-25T07:57:35.971Z,29.05
2019-02-25T07:58:35.907Z,28.64
2019-02-25T07:59:35.971Z,28.64
2019-02-25T08:00:36.137Z,28.64
2019-02-25T08:01:35.912Z,28.74
2019-02-25T08:18:43.421Z,28.23
2019-02-25T08:19:43.433Z,28.33
2019-02-25T08:20:43.394Z,28.44
2019-02-25T08:21:43.352Z,28.43
2019-02-25T08:22:43.361Z,28.44
2019-02-25T08:23:43.336Z,28.44
2019-02-25T08:24:43.330Z,28.44
2019-02-25T08:25:43.323Z,28.33
2019-02-25T08:26:43.300Z,28.23
2019-02-25T08:27:43.293Z,28.43
2019-02-25T08:28:43.299Z,28.33
2019-02-25T08:29:43.293Z,28.33
2019-02-25T08:30:43.248Z,28.43
2019-02-25T08:31:43.250Z,29.33
2019-02-25T08:32:43.234Z,29.13
2019-02-25T08:33:43.243Z,29.53
2019-02-25T08:34:43.214Z,29.43
2019-02-25T08:35:43.228Z,29.33
2019-02-25T08:36:43.210Z,29.43
2019-02-25T08:37:43.261Z,29.53
2019-02-25T08:38:43.175Z,29.43
2019-02-25T08:39:43.147Z,29.73
2019-02-25T08:40:43.141Z,30.13
2019-02-25T08:41:43.146Z,29.73
2019-02-25T08:42:43.176Z,29.63
2019-02-25T08:43:43.114Z,29.53
2019-02-25T08:44:43.100Z,29.73
2019-02-25T08:45:46.021Z,30.03
2019-02-25T08:46:47.236Z,30.13
2019-02-25T08:47:43.066Z,30.13
2019-02-25T08:48:43.060Z,29.84
2019-02-25T08:49:43.042Z,29.53
2019-02-25T08:50:43.257Z,29.63
2019-02-25T08:51:43.030Z,29.73
2019-02-25T08:52:43.028Z,29.73
2019-02-25T08:53:43.308Z,30.03
2019-02-25T08:54:42.998Z,30.22
2019-02-25T08:55:46.162Z,29.84
2019-02-25T08:56:42.982Z,29.53
2019-02-25T08:57:42.964Z,29.63
2019-02-25T08:58:43.072Z,29.92
2019-02-25T08:59:42.941Z,29.73
2019-02-25T09:00:42.975Z,29.73
2019-02-25T09:01:42.900Z,29.72
2019-02-25T09:02:46.358Z,30.02
2019-02-25T09:03:42.933Z,29.93
2019-02-25T09:04:42.897Z,29.73
2019-02-25T09:05:42.935Z,29.63
2019-02-25T09:06:45.602Z,30.23
2019-02-25T09:07:42.981Z,30.13
2019-02-25T09:08:43.174Z,29.62
2019-02-25T09:09:42.845Z,29.73
2019-02-25T09:10:42.899Z,29.93
2019-02-25T09:11:42.825Z,29.72
2019-02-25T09:12:42.813Z,29.72
2019-02-25T09:13:42.773Z,29.84
2019-02-25T09:14:42.753Z,29.82
2019-02-25T09:15:42.754Z,29.62
2019-02-25T09:16:42.731Z,29.52
2019-02-25T09:17:42.722Z,30.12
2019-02-25T09:18:42.717Z,30.03
2019-02-25T09:19:42.705Z,29.52
2019-02-25T09:20:42.683Z,29.82
2019-02-25T09:21:42.699Z,29.72
2019-02-25T09:22:42.715Z,29.92
2019-02-25T09:23:42.678Z,30.12
2019-02-25T09:24:42.726Z,29.92
2019-02-25T09:25:42.633Z,29.62
2019-02-25T09:26:42.649Z,29.82
2019-02-25T09:27:42.650Z,29.72
2019-02-25T09:28:42.642Z,29.62
2019-02-25T09:29:44.826Z,29.62
2019-02-25T09:30:42.587Z,29.52
2019-02-25T09:31:42.569Z,29.42
2019-02-25T09:32:42.645Z,30.22
2019-02-25T09:33:42.750Z,30.32
2019-02-25T09:34:42.554Z,30.42
2019-02-25T09:35:42.560Z,30.32
2019-02-25T09:36:42.503Z,30.12
2019-02-25T09:37:42.541Z,29.92
2019-02-25T09:38:42.513Z,30.02
2019-02-25T09:39:42.572Z,29.82
2019-02-25T09:40:42.459Z,30.32
2019-02-25T09:41:42.489Z,30.22
2019-02-25T09:42:42.431Z,29.62
2019-02-25T09:43:42.435Z,30.02
2019-02-25T09:44:43.498Z,30.02
2019-02-25T09:45:42.412Z,30.22
2019-02-25T09:46:42.408Z,30.22
2019-02-25T09:47:42.403Z,30.20
2019-02-25T09:48:42.385Z,29.62
2019-02-25T09:49:42.442Z,29.62
2019-02-25T09:50:42.380Z,29.72
2019-02-25T09:51:42.353Z,29.72
2019-02-25T09:52:42.322Z,29.71
2019-02-25T09:53:42.348Z,30.12
2019-02-25T09:54:42.320Z,30.12
2019-02-25T09:55:42.291Z,29.82
2019-02-25T09:56:42.284Z,29.72
2019-02-25T09:57:42.481Z,30.20
2019-02-25T09:58:42.653Z,30.02
2019-02-25T09:59:42.278Z,30.12
2019-02-25T10:00:42.247Z,30.22
2019-02-25T10:01:42.248Z,29.82
2019-02-25T10:02:42.223Z,29.52
2019-02-25T10:03:42.206Z,30.42
2019-02-25T10:04:42.264Z,29.52
2019-02-25T10:05:42.181Z,29.52
2019-02-25T10:06:42.180Z,29.40
2019-02-25T10:07:42.181Z,29.22
2019-02-25T10:08:42.172Z,29.42
2019-02-25T10:09:42.359Z,29.51
2019-02-25T10:10:42.176Z,29.51
2019-02-25T10:11:42.111Z,29.82
2019-02-25T10:12:42.151Z,29.32
2019-02-25T10:13:42.107Z,29.71
2019-02-25T10:14:42.090Z,29.72
2019-02-25T10:15:42.343Z,29.80
2019-02-25T10:16:42.058Z,30.20
2019-02-25T10:17:42.096Z,29.80
2019-02-25T10:18:42.059Z,29.80
2019-02-25T10:19:42.230Z,29.71
2019-02-25T10:20:42.002Z,29.80
2019-02-25T10:21:41.990Z,29.80
2019-02-25T10:22:42.007Z,29.51
2019-02-25T10:23:42.399Z,30.12
2019-02-25T10:24:42.166Z,29.82
2019-02-25T10:25:41.973Z,29.71
2019-02-25T10:26:41.947Z,30.02
2019-02-25T10:27:42.144Z,29.51
2019-02-25T10:28:41.931Z,29.51
2019-02-25T10:29:41.914Z,29.32
2019-02-25T10:30:41.906Z,29.71
2019-02-25T10:31:43.704Z,29.51
2019-02-25T10:32:41.896Z,29.60
2019-02-25T10:33:41.871Z,29.71
2019-02-25T10:34:41.867Z,30.10
2019-02-25T10:35:41.870Z,29.80
2019-02-25T10:36:41.852Z,30.20
2019-02-25T10:37:43.673Z,29.92
2019-02-25T10:38:41.828Z,29.71
2019-02-25T10:39:43.340Z,29.90
2019-02-25T10:40:43.362Z,29.71
2019-02-25T10:41:41.760Z,30.40
2019-02-25T10:42:41.762Z,30.40
2019-02-25T10:43:41.738Z,29.71
2019-02-25T10:44:41.739Z,30.20
2019-02-25T10:45:43.299Z,30.10
2019-02-25T10:46:42.829Z,29.60
2019-02-25T10:47:46.739Z,30.10
2019-02-25T10:49:11.105Z,30.31
2019-02-25T10:50:31.178Z,30.60
2019-02-25T10:51:28.960Z,30.70
2019-02-25T10:52:28.953Z,30.20
2019-02-25T10:53:28.936Z,30.60
2019-02-25T10:54:28.908Z,30.10
2019-02-25T10:55:28.918Z,29.90
2019-02-25T10:56:28.898Z,30.40
2019-02-25T10:57:31.363Z,30.09
2019-02-25T10:58:30.733Z,30.10
2019-02-25T10:59:29.845Z,29.71
2019-02-25T11:00:30.657Z,30.51
2019-02-25T11:01:29.506Z,29.60
2019-02-25T11:02:28.904Z,30.01
2019-02-25T11:03:28.941Z,30.10
2019-02-25T11:04:28.857Z,30.40
2019-02-25T11:05:30.646Z,30.01
2019-02-25T11:06:29.601Z,30.60
2019-02-25T11:07:28.776Z,30.51
2019-02-25T11:08:29.010Z,30.20
2019-02-25T11:09:28.752Z,30.40
2019-02-25T11:10:28.790Z,30.20
2019-02-25T11:11:28.776Z,29.71
2019-02-25T11:12:30.101Z,30.01
2019-02-25T11:13:29.769Z,29.51
2019-02-25T11:14:28.735Z,29.99
2019-02-25T11:15:28.693Z,29.90
2019-02-25T11:16:28.688Z,29.90
2019-02-25T11:17:28.666Z,30.19
2019-02-25T11:18:28.658Z,29.99
2019-02-25T11:19:30.615Z,29.80
2019-02-25T11:20:29.260Z,30.09
2019-02-25T11:21:28.630Z,29.89
2019-02-25T11:22:28.625Z,29.19
2019-02-25T11:23:28.645Z,29.19
2019-02-25T11:24:28.629Z,29.89
2019-02-25T11:25:30.180Z,29.59
2019-02-25T11:26:30.539Z,29.59
2019-02-25T11:27:30.845Z,29.80
2019-02-25T11:28:28.597Z,29.59
2019-02-25T11:29:28.564Z,29.80
2019-02-25T11:30:28.526Z,29.71
2019-02-25T11:31:29.858Z,30.01
2019-02-25T11:32:28.548Z,29.89
2019-02-25T11:33:30.254Z,29.49
2019-02-25T11:34:29.490Z,29.69
2019-02-25T11:35:28.482Z,29.51
2019-02-25T11:36:28.490Z,29.69
2019-02-25T11:37:28.442Z,29.69
2019-02-25T11:38:30.348Z,29.40
2019-02-25T11:39:30.233Z,29.71
2019-02-25T11:40:30.994Z,29.49
2019-02-25T11:41:29.667Z,29.40
2019-02-25T11:42:28.375Z,29.69
2019-02-25T11:43:28.447Z,29.99
2019-02-25T11:44:31.164Z,30.19
2019-02-25T11:45:29.376Z,29.69
2019-02-25T11:46:28.356Z,29.89
2019-02-25T11:47:28.327Z,29.71
2019-02-25T11:48:28.385Z,29.40
2019-02-25T11:49:28.308Z,29.39
2019-02-25T11:50:28.284Z,29.40
2019-02-25T11:51:28.290Z,29.30
2019-02-25T11:52:28.291Z,29.10
2019-02-25T11:53:28.268Z,29.21
2019-02-25T11:54:28.267Z,29.10
2019-02-25T11:55:28.263Z,29.30
2019-02-25T11:56:28.222Z,29.21
2019-02-25T11:57:28.227Z,29.10
2019-02-25T11:58:28.200Z,29.10
2019-02-25T11:59:28.229Z,28.90
2019-02-25T12:00:28.187Z,28.90
2019-02-25T12:01:28.179Z,29.51
2019-02-25T12:02:28.153Z,28.90
2019-02-25T12:03:28.152Z,29.10
2019-02-25T12:04:29.287Z,29.21
2019-02-25T12:05:28.113Z,28.60
2019-02-25T12:06:28.119Z,29.21
2019-02-25T12:07:28.099Z,28.30
2019-02-25T12:08:28.137Z,28.50
2019-02-25T12:09:28.084Z,28.21
2019-02-25T12:10:28.074Z,28.40
2019-02-25T12:11:28.063Z,28.19
2019-02-25T12:12:28.046Z,28.40
2019-02-25T12:13:28.027Z,29.40
2019-02-25T12:14:28.053Z,29.21
2019-02-25T12:15:28.198Z,29.40
2019-02-25T12:16:28.291Z,29.21
2019-02-25T12:17:28.012Z,28.30
2019-02-25T12:18:27.982Z,28.30
2019-02-25T12:19:27.963Z,28.30
2019-02-25T12:20:27.970Z,29.40
2019-02-25T12:21:27.937Z,29.21
2019-02-25T12:22:27.944Z,29.71
2019-02-25T12:23:27.934Z,30.10
2019-02-25T12:24:27.912Z,29.30
2019-02-25T12:25:27.905Z,29.71
2019-02-25T12:26:27.895Z,30.01
2019-02-25T12:27:27.871Z,29.71
2019-02-25T12:28:27.864Z,29.40
2019-02-25T12:29:27.916Z,29.21
2019-02-25T12:30:27.872Z,29.51
2019-02-25T12:31:27.892Z,29.40
2019-02-25T12:32:27.820Z,28.29
2019-02-25T12:33:27.837Z,28.40
2019-02-25T12:34:27.822Z,28.40
2019-02-25T12:35:27.798Z,28.60
2019-02-25T12:36:27.782Z,29.40
2019-02-25T12:37:27.762Z,29.01
2019-02-25T12:38:27.763Z,29.71
2019-02-25T12:39:49.497Z,29.40
2019-02-25T12:40:49.480Z,29.60
2019-02-25T12:41:49.476Z,29.49
2019-02-25T12:42:49.428Z,29.19
2019-02-25T12:43:49.503Z,29.69
2019-02-25T12:44:49.413Z,29.69
2019-02-25T12:45:49.406Z,29.49
2019-02-25T12:46:49.377Z,29.40
2019-02-25T12:47:49.394Z,29.49
2019-02-25T12:48:49.395Z,29.29
2019-02-25T12:49:49.495Z,29.39
2019-02-25T12:50:49.342Z,29.69
2019-02-25T12:51:49.333Z,28.99
2019-02-25T12:52:49.344Z,29.49
2019-02-25T12:53:49.301Z,28.50
2019-02-25T12:54:49.295Z,29.29
2019-02-25T12:55:49.298Z,29.30
2019-02-25T12:56:49.273Z,29.59
2019-02-25T12:57:49.289Z,29.09
2019-02-25T12:58:49.469Z,28.39
2019-02-25T12:59:49.232Z,28.69
2019-02-25T13:00:49.226Z,29.19
2019-02-25T13:01:49.227Z,29.51
2019-02-25T13:02:49.220Z,29.69
2019-02-25T13:03:49.217Z,29.69
2019-02-25T13:04:49.198Z,29.29
2019-02-25T13:05:49.203Z,28.29
2019-02-25T13:06:49.158Z,28.29
2019-02-25T13:07:49.153Z,28.29
2019-02-25T13:08:49.222Z,28.69
2019-02-25T13:09:49.130Z,28.69
2019-02-25T13:10:49.120Z,28.71
2019-02-25T13:11:49.106Z,28.39
2019-02-25T13:12:51.418Z,28.99
2019-02-25T13:13:49.090Z,28.29
2019-02-25T13:14:49.067Z,28.80
2019-02-25T13:15:49.073Z,28.49
2019-02-25T13:16:49.049Z,28.39
2019-02-25T13:17:49.035Z,28.79
2019-02-25T13:18:49.015Z,28.19
2019-02-25T13:19:49.014Z,28.21
2019-02-25T13:20:49.017Z,28.21
2019-02-25T13:21:48.986Z,27.20
2019-02-25T13:22:49.101Z,28.49
2019-02-25T13:23:49.197Z,28.10
2019-02-25T13:24:48.951Z,28.30
2019-02-25T13:25:48.975Z,28.10
2019-02-25T13:26:48.930Z,27.79
2019-02-25T13:27:48.921Z,28.00
2019-02-25T13:28:48.990Z,28.00
2019-02-25T13:29:49.707Z,28.30
2019-02-25T13:30:48.930Z,28.00
2019-02-25T13:31:48.885Z,27.90
2019-02-25T13:32:48.865Z,27.80
2019-02-25T13:33:48.867Z,27.60
2019-02-25T13:34:48.844Z,27.70
2019-02-25T13:35:48.857Z,27.99
2019-02-25T13:36:48.816Z,27.90
2019-02-25T13:37:49.555Z,27.99
2019-02-25T13:38:48.903Z,26.79
2019-02-25T13:39:48.867Z,27.20
2019-02-25T13:40:48.800Z,27.20
2019-02-25T13:41:48.781Z,27.79
2019-02-25T13:42:48.777Z,28.00
2019-02-25T13:43:48.757Z,27.60
2019-02-25T13:44:48.735Z,27.10
2019-02-25T13:45:48.725Z,27.30
2019-02-25T13:46:48.711Z,27.41
2019-02-25T14:01:59.522Z,26.80
2019-02-25T14:02:59.505Z,26.60
2019-02-25T14:03:59.495Z,26.60
2019-02-25T14:04:59.478Z,26.80
2019-02-25T14:05:59.494Z,26.60
2019-02-25T14:06:59.528Z,26.80
2019-02-25T14:07:59.460Z,26.81
2019-02-25T14:08:59.432Z,26.80
2019-02-25T14:09:59.439Z,26.60
2019-02-25T14:10:59.430Z,26.80
2019-02-25T14:11:59.408Z,26.81
2019-02-25T14:12:59.385Z,26.81
2019-02-25T14:13:59.386Z,26.61
2019-02-25T14:14:59.477Z,26.80
2019-02-25T14:15:59.368Z,26.81
2019-02-25T14:16:59.370Z,26.51
2019-02-25T14:17:59.350Z,26.72
2019-02-25T14:18:59.371Z,26.60
2019-02-25T14:19:59.313Z,26.81
2019-02-25T14:20:59.300Z,26.60
2019-02-25T14:21:59.290Z,26.70
2019-02-25T14:23:00.673Z,26.72
2019-02-25T14:23:59.812Z,26.61
2019-02-25T14:24:59.245Z,26.60
2019-02-25T14:25:59.272Z,26.61
2019-02-25T14:26:59.401Z,26.60
2019-02-25T14:27:59.294Z,26.80
2019-02-25T14:28:59.216Z,26.70
2019-02-25T14:29:59.200Z,26.81
2019-02-25T14:30:59.194Z,26.42
2019-02-25T14:31:59.198Z,26.70
2019-02-25T14:32:59.242Z,26.61
2019-02-25T14:33:59.175Z,26.42
2019-02-25T14:34:59.149Z,26.70
2019-02-25T14:35:59.145Z,26.31
2019-02-25T14:37:00.233Z,26.92
2019-02-25T14:38:04.179Z,26.51
2019-02-25T14:39:24.917Z,27.41
2019-02-25T14:40:22.097Z,26.92
2019-02-25T14:41:21.402Z,26.80
2019-02-25T14:42:23.752Z,26.91
2019-02-25T14:43:22.663Z,27.31
2019-02-25T14:44:21.577Z,26.92
2019-02-25T14:45:21.805Z,26.42
2019-02-25T14:46:22.570Z,26.70
2019-02-25T14:47:25.747Z,26.40
